sensor_id;sensor_type;location;lat;lon;timestamp;P1;durP1;ratioP1;P2;durP2;ratioP2
84297;SDS011;74466;51.188;3.242;2024-03-25T00:00:54;21.48;;;10.30;;
84297;SDS011;74466;51.188;3.242;2024-03-25T00:03:20;21.33;;;9.88;;
84297;SDS011;74466;51.188;3.242;2024-03-25T00:05:45;20.48;;;10.88;;
84297;SDS011;74466;51.188;3.242;2024-03-25T00:08:11;19.65;;;10.23;;
84297;SDS011;74466;51.188;3.242;2024-03-25T00:10:37;21.20;;;10.68;;
84297;SDS011;74466;51.188;3.242;2024-03-25T00:13:03;22.23;;;10.32;;
84297;SDS011;74466;51.188;3.242;2024-03-25T00:15:29;20.17;;;9.95;;
84297;SDS011;74466;51.188;3.242;2024-03-25T00:17:55;20.55;;;10.20;;
84297;SDS011;74466;51.188;3.242;2024-03-25T00:20:21;17.67;;;9.93;;
84297;SDS011;74466;51.188;3.242;2024-03-25T00:22:46;18.48;;;9.85;;
84297;SDS011;74466;51.188;3.242;2024-03-25T00:25:12;17.25;;;9.18;;
84297;SDS011;74466;51.188;3.242;2024-03-25T00:27:38;17.40;;;9.23;;
84297;SDS011;74466;51.188;3.242;2024-03-25T00:30:03;17.65;;;9.38;;
84297;SDS011;74466;51.188;3.242;2024-03-25T00:32:30;18.25;;;9.02;;
84297;SDS011;74466;51.188;3.242;2024-03-25T00:34:55;17.05;;;9.32;;
84297;SDS011;74466;51.188;3.242;2024-03-25T00:37:22;17.63;;;9.27;;
84297;SDS011;74466;51.188;3.242;2024-03-25T00:39:49;21.02;;;10.68;;
84297;SDS011;74466;51.188;3.242;2024-03-25T00:42:14;16.55;;;9.02;;
84297;SDS011;74466;51.188;3.242;2024-03-25T00:44:40;19.52;;;10.27;;
84297;SDS011;74466;51.188;3.242;2024-03-25T00:47:06;21.40;;;10.48;;
84297;SDS011;74466;51.188;3.242;2024-03-25T00:49:31;18.13;;;9.40;;
84297;SDS011;74466;51.188;3.242;2024-03-25T00:52:00;19.63;;;9.65;;
84297;SDS011;74466;51.188;3.242;2024-03-25T00:54:25;18.35;;;9.55;;
84297;SDS011;74466;51.188;3.242;2024-03-25T00:56:52;18.38;;;9.40;;
84297;SDS011;74466;51.188;3.242;2024-03-25T00:59:18;18.02;;;9.63;;
84297;SDS011;74466;51.188;3.242;2024-03-25T01:01:44;17.75;;;9.18;;
84297;SDS011;74466;51.188;3.242;2024-03-25T01:04:10;20.88;;;9.80;;
84297;SDS011;74466;51.188;3.242;2024-03-25T01:06:35;19.60;;;9.45;;
84297;SDS011;74466;51.188;3.242;2024-03-25T01:09:01;17.55;;;9.32;;
84297;SDS011;74466;51.188;3.242;2024-03-25T01:11:27;21.33;;;10.05;;
84297;SDS011;74466;51.188;3.242;2024-03-25T01:13:52;18.38;;;9.52;;
84297;SDS011;74466;51.188;3.242;2024-03-25T01:16:18;21.35;;;9.93;;
84297;SDS011;74466;51.188;3.242;2024-03-25T01:18:44;18.38;;;10.13;;
84297;SDS011;74466;51.188;3.242;2024-03-25T01:21:09;25.50;;;11.93;;
84297;SDS011;74466;51.188;3.242;2024-03-25T01:23:35;17.85;;;9.30;;
84297;SDS011;74466;51.188;3.242;2024-03-25T01:26:00;24.55;;;10.27;;
84297;SDS011;74466;51.188;3.242;2024-03-25T01:28:26;17.10;;;9.75;;
84297;SDS011;74466;51.188;3.242;2024-03-25T01:30:52;18.35;;;9.02;;
84297;SDS011;74466;51.188;3.242;2024-03-25T01:33:18;19.35;;;10.15;;
84297;SDS011;74466;51.188;3.242;2024-03-25T01:35:45;20.60;;;9.43;;
84297;SDS011;74466;51.188;3.242;2024-03-25T01:38:10;17.88;;;8.93;;
84297;SDS011;74466;51.188;3.242;2024-03-25T01:40:36;17.25;;;9.10;;
84297;SDS011;74466;51.188;3.242;2024-03-25T01:43:02;17.63;;;9.38;;
84297;SDS011;74466;51.188;3.242;2024-03-25T01:45:34;18.27;;;8.95;;
84297;SDS011;74466;51.188;3.242;2024-03-25T01:48:07;17.80;;;9.07;;
84297;SDS011;74466;51.188;3.242;2024-03-25T01:50:35;16.95;;;8.60;;
84297;SDS011;74466;51.188;3.242;2024-03-25T01:53:03;16.55;;;8.65;;
84297;SDS011;74466;51.188;3.242;2024-03-25T01:55:29;20.05;;;8.80;;
84297;SDS011;74466;51.188;3.242;2024-03-25T01:57:57;17.50;;;9.05;;
84297;SDS011;74466;51.188;3.242;2024-03-25T02:00:24;19.77;;;8.85;;
84297;SDS011;74466;51.188;3.242;2024-03-25T02:02:51;18.17;;;8.68;;
84297;SDS011;74466;51.188;3.242;2024-03-25T02:05:17;16.25;;;8.48;;
84297;SDS011;74466;51.188;3.242;2024-03-25T02:07:44;17.00;;;8.73;;
84297;SDS011;74466;51.188;3.242;2024-03-25T02:10:10;18.95;;;9.00;;
84297;SDS011;74466;51.188;3.242;2024-03-25T02:12:40;17.15;;;9.30;;
84297;SDS011;74466;51.188;3.242;2024-03-25T02:15:07;16.42;;;8.38;;
84297;SDS011;74466;51.188;3.242;2024-03-25T02:17:33;17.60;;;8.48;;
84297;SDS011;74466;51.188;3.242;2024-03-25T02:19:59;16.92;;;7.80;;
84297;SDS011;74466;51.188;3.242;2024-03-25T02:22:26;16.77;;;8.77;;
84297;SDS011;74466;51.188;3.242;2024-03-25T02:24:52;18.17;;;9.20;;
84297;SDS011;74466;51.188;3.242;2024-03-25T02:27:21;14.90;;;8.32;;
84297;SDS011;74466;51.188;3.242;2024-03-25T02:29:47;16.83;;;8.10;;
84297;SDS011;74466;51.188;3.242;2024-03-25T02:32:12;16.35;;;8.68;;
84297;SDS011;74466;51.188;3.242;2024-03-25T02:34:43;17.40;;;8.70;;
84297;SDS011;74466;51.188;3.242;2024-03-25T02:37:12;17.65;;;8.57;;
84297;SDS011;74466;51.188;3.242;2024-03-25T02:39:38;17.13;;;8.05;;
84297;SDS011;74466;51.188;3.242;2024-03-25T02:42:04;16.58;;;7.80;;
84297;SDS011;74466;51.188;3.242;2024-03-25T02:44:30;17.90;;;7.70;;
84297;SDS011;74466;51.188;3.242;2024-03-25T02:46:57;16.08;;;8.15;;
84297;SDS011;74466;51.188;3.242;2024-03-25T02:49:23;15.35;;;7.50;;
84297;SDS011;74466;51.188;3.242;2024-03-25T02:51:49;16.05;;;7.68;;
84297;SDS011;74466;51.188;3.242;2024-03-25T02:54:14;18.00;;;8.00;;
84297;SDS011;74466;51.188;3.242;2024-03-25T02:56:41;17.27;;;8.13;;
84297;SDS011;74466;51.188;3.242;2024-03-25T02:59:06;18.63;;;8.05;;
84297;SDS011;74466;51.188;3.242;2024-03-25T03:01:32;15.73;;;7.72;;
84297;SDS011;74466;51.188;3.242;2024-03-25T03:03:58;14.82;;;7.35;;
84297;SDS011;74466;51.188;3.242;2024-03-25T03:06:23;14.85;;;7.32;;
84297;SDS011;74466;51.188;3.242;2024-03-25T03:08:49;15.55;;;7.25;;
84297;SDS011;74466;51.188;3.242;2024-03-25T03:11:14;15.23;;;7.55;;
84297;SDS011;74466;51.188;3.242;2024-03-25T03:13:40;17.63;;;8.30;;
84297;SDS011;74466;51.188;3.242;2024-03-25T03:16:06;18.27;;;7.78;;
84297;SDS011;74466;51.188;3.242;2024-03-25T03:18:31;16.35;;;7.82;;
84297;SDS011;74466;51.188;3.242;2024-03-25T03:20:57;14.88;;;7.30;;
84297;SDS011;74466;51.188;3.242;2024-03-25T03:23:23;14.93;;;7.18;;
84297;SDS011;74466;51.188;3.242;2024-03-25T03:25:48;15.65;;;7.80;;
84297;SDS011;74466;51.188;3.242;2024-03-25T03:28:15;19.17;;;7.90;;
84297;SDS011;74466;51.188;3.242;2024-03-25T03:30:41;16.48;;;7.72;;
84297;SDS011;74466;51.188;3.242;2024-03-25T03:33:07;14.63;;;7.30;;
84297;SDS011;74466;51.188;3.242;2024-03-25T03:35:33;17.05;;;7.57;;
84297;SDS011;74466;51.188;3.242;2024-03-25T03:38:00;19.17;;;8.05;;
84297;SDS011;74466;51.188;3.242;2024-03-25T03:40:25;16.77;;;7.90;;
84297;SDS011;74466;51.188;3.242;2024-03-25T03:42:52;18.63;;;8.52;;
84297;SDS011;74466;51.188;3.242;2024-03-25T03:45:17;16.55;;;7.78;;
84297;SDS011;74466;51.188;3.242;2024-03-25T03:47:43;15.50;;;7.80;;
84297;SDS011;74466;51.188;3.242;2024-03-25T03:50:09;16.58;;;7.88;;
84297;SDS011;74466;51.188;3.242;2024-03-25T03:52:35;15.63;;;7.65;;
84297;SDS011;74466;51.188;3.242;2024-03-25T03:55:00;16.00;;;7.47;;
84297;SDS011;74466;51.188;3.242;2024-03-25T03:57:26;20.77;;;8.05;;
84297;SDS011;74466;51.188;3.242;2024-03-25T03:59:52;17.42;;;7.40;;
84297;SDS011;74466;51.188;3.242;2024-03-25T04:02:17;17.30;;;7.47;;
84297;SDS011;74466;51.188;3.242;2024-03-25T04:04:43;16.88;;;7.80;;
84297;SDS011;74466;51.188;3.242;2024-03-25T04:07:09;16.45;;;7.80;;
84297;SDS011;74466;51.188;3.242;2024-03-25T04:09:35;15.50;;;6.90;;
84297;SDS011;74466;51.188;3.242;2024-03-25T04:12:00;19.58;;;8.05;;
84297;SDS011;74466;51.188;3.242;2024-03-25T04:14:26;16.55;;;7.97;;
84297;SDS011;74466;51.188;3.242;2024-03-25T04:16:52;19.63;;;7.82;;
84297;SDS011;74466;51.188;3.242;2024-03-25T04:19:19;19.10;;;7.90;;
84297;SDS011;74466;51.188;3.242;2024-03-25T04:21:45;23.05;;;8.93;;
84297;SDS011;74466;51.188;3.242;2024-03-25T04:24:11;23.27;;;8.70;;
84297;SDS011;74466;51.188;3.242;2024-03-25T04:26:37;20.63;;;8.05;;
84297;SDS011;74466;51.188;3.242;2024-03-25T04:29:03;21.20;;;8.07;;
84297;SDS011;74466;51.188;3.242;2024-03-25T04:31:29;28.60;;;8.70;;
84297;SDS011;74466;51.188;3.242;2024-03-25T04:33:54;25.13;;;8.60;;
84297;SDS011;74466;51.188;3.242;2024-03-25T04:36:20;25.55;;;9.45;;
84297;SDS011;74466;51.188;3.242;2024-03-25T04:38:46;23.50;;;9.25;;
84297;SDS011;74466;51.188;3.242;2024-03-25T04:41:11;24.00;;;8.98;;
84297;SDS011;74466;51.188;3.242;2024-03-25T04:43:37;24.50;;;8.55;;
84297;SDS011;74466;51.188;3.242;2024-03-25T04:46:03;28.73;;;8.80;;
84297;SDS011;74466;51.188;3.242;2024-03-25T04:48:28;26.50;;;9.18;;
84297;SDS011;74466;51.188;3.242;2024-03-25T04:50:54;24.33;;;8.52;;
84297;SDS011;74466;51.188;3.242;2024-03-25T04:53:20;28.67;;;8.70;;
84297;SDS011;74466;51.188;3.242;2024-03-25T04:55:45;27.75;;;9.25;;
84297;SDS011;74466;51.188;3.242;2024-03-25T04:58:11;27.50;;;8.80;;
84297;SDS011;74466;51.188;3.242;2024-03-25T05:00:37;24.30;;;9.52;;
84297;SDS011;74466;51.188;3.242;2024-03-25T05:03:03;22.45;;;8.75;;
84297;SDS011;74466;51.188;3.242;2024-03-25T05:05:29;22.75;;;8.45;;
84297;SDS011;74466;51.188;3.242;2024-03-25T05:07:55;20.08;;;8.88;;
84297;SDS011;74466;51.188;3.242;2024-03-25T05:10:20;17.98;;;7.72;;
84297;SDS011;74466;51.188;3.242;2024-03-25T05:12:46;21.35;;;8.57;;
84297;SDS011;74466;51.188;3.242;2024-03-25T05:15:14;22.63;;;9.55;;
84297;SDS011;74466;51.188;3.242;2024-03-25T05:17:40;22.95;;;9.10;;
84297;SDS011;74466;51.188;3.242;2024-03-25T05:20:06;18.75;;;8.27;;
84297;SDS011;74466;51.188;3.242;2024-03-25T05:22:32;27.45;;;8.68;;
84297;SDS011;74466;51.188;3.242;2024-03-25T05:24:58;19.33;;;8.20;;
84297;SDS011;74466;51.188;3.242;2024-03-25T05:27:24;21.00;;;8.38;;
84297;SDS011;74466;51.188;3.242;2024-03-25T05:29:49;18.15;;;8.15;;
84297;SDS011;74466;51.188;3.242;2024-03-25T05:32:15;23.75;;;8.98;;
84297;SDS011;74466;51.188;3.242;2024-03-25T05:34:42;22.58;;;8.38;;
84297;SDS011;74466;51.188;3.242;2024-03-25T05:37:08;20.98;;;8.90;;
84297;SDS011;74466;51.188;3.242;2024-03-25T05:39:33;24.95;;;8.95;;
84297;SDS011;74466;51.188;3.242;2024-03-25T05:41:59;21.80;;;8.98;;
84297;SDS011;74466;51.188;3.242;2024-03-25T05:44:25;28.95;;;9.48;;
84297;SDS011;74466;51.188;3.242;2024-03-25T05:46:50;19.65;;;8.88;;
84297;SDS011;74466;51.188;3.242;2024-03-25T05:49:16;25.38;;;8.90;;
84297;SDS011;74466;51.188;3.242;2024-03-25T05:51:42;22.98;;;9.10;;
84297;SDS011;74466;51.188;3.242;2024-03-25T05:54:07;23.23;;;9.23;;
84297;SDS011;74466;51.188;3.242;2024-03-25T05:56:33;33.53;;;10.80;;
84297;SDS011;74466;51.188;3.242;2024-03-25T05:58:59;25.42;;;10.20;;
84297;SDS011;74466;51.188;3.242;2024-03-25T06:01:26;28.98;;;10.98;;
84297;SDS011;74466;51.188;3.242;2024-03-25T06:03:52;28.75;;;11.15;;
84297;SDS011;74466;51.188;3.242;2024-03-25T06:06:17;48.28;;;12.50;;
84297;SDS011;74466;51.188;3.242;2024-03-25T06:08:43;42.85;;;14.18;;
84297;SDS011;74466;51.188;3.242;2024-03-25T06:11:09;43.58;;;13.98;;
84297;SDS011;74466;51.188;3.242;2024-03-25T06:13:34;37.33;;;13.38;;
84297;SDS011;74466;51.188;3.242;2024-03-25T06:16:00;34.50;;;13.48;;
84297;SDS011;74466;51.188;3.242;2024-03-25T06:18:26;37.90;;;13.90;;
84297;SDS011;74466;51.188;3.242;2024-03-25T06:20:51;38.10;;;13.82;;
84297;SDS011;74466;51.188;3.242;2024-03-25T06:25:49;32.97;;;12.07;;
84297;SDS011;74466;51.188;3.242;2024-03-25T06:28:15;38.10;;;12.75;;
84297;SDS011;74466;51.188;3.242;2024-03-25T06:30:41;38.10;;;13.63;;
84297;SDS011;74466;51.188;3.242;2024-03-25T06:33:25;39.03;;;13.35;;
84297;SDS011;74466;51.188;3.242;2024-03-25T06:38:34;36.78;;;11.93;;
84297;SDS011;74466;51.188;3.242;2024-03-25T06:41:00;34.38;;;12.38;;
84297;SDS011;74466;51.188;3.242;2024-03-25T06:43:26;39.70;;;12.38;;
84297;SDS011;74466;51.188;3.242;2024-03-25T06:45:51;35.13;;;12.13;;
84297;SDS011;74466;51.188;3.242;2024-03-25T06:48:17;32.80;;;11.65;;
84297;SDS011;74466;51.188;3.242;2024-03-25T06:50:51;33.50;;;11.55;;
84297;SDS011;74466;51.188;3.242;2024-03-25T06:53:20;31.63;;;11.40;;
84297;SDS011;74466;51.188;3.242;2024-03-25T06:55:56;29.95;;;10.70;;
84297;SDS011;74466;51.188;3.242;2024-03-25T06:58:26;30.38;;;11.38;;
84297;SDS011;74466;51.188;3.242;2024-03-25T07:00:53;30.17;;;10.20;;
84297;SDS011;74466;51.188;3.242;2024-03-25T07:03:20;36.97;;;10.77;;
84297;SDS011;74466;51.188;3.242;2024-03-25T07:05:46;27.92;;;9.80;;
84297;SDS011;74466;51.188;3.242;2024-03-25T07:08:13;31.98;;;10.27;;
84297;SDS011;74466;51.188;3.242;2024-03-25T07:10:43;29.33;;;10.65;;
84297;SDS011;74466;51.188;3.242;2024-03-25T07:13:09;32.22;;;10.88;;
84297;SDS011;74466;51.188;3.242;2024-03-25T07:15:35;29.23;;;10.40;;
84297;SDS011;74466;51.188;3.242;2024-03-25T07:18:01;34.72;;;10.88;;
84297;SDS011;74466;51.188;3.242;2024-03-25T07:20:26;35.28;;;10.82;;
84297;SDS011;74466;51.188;3.242;2024-03-25T07:22:52;35.70;;;11.13;;
84297;SDS011;74466;51.188;3.242;2024-03-25T07:25:22;32.13;;;11.60;;
84297;SDS011;74466;51.188;3.242;2024-03-25T07:27:51;37.75;;;11.82;;
84297;SDS011;74466;51.188;3.242;2024-03-25T07:30:17;41.33;;;12.93;;
84297;SDS011;74466;51.188;3.242;2024-03-25T07:32:43;43.47;;;13.70;;
84297;SDS011;74466;51.188;3.242;2024-03-25T07:35:12;43.75;;;13.75;;
84297;SDS011;74466;51.188;3.242;2024-03-25T07:37:40;41.05;;;13.65;;
84297;SDS011;74466;51.188;3.242;2024-03-25T07:40:06;56.08;;;14.75;;
84297;SDS011;74466;51.188;3.242;2024-03-25T07:42:33;52.75;;;14.23;;
84297;SDS011;74466;51.188;3.242;2024-03-25T07:44:58;48.50;;;14.15;;
84297;SDS011;74466;51.188;3.242;2024-03-25T07:47:25;52.97;;;13.73;;
84297;SDS011;74466;51.188;3.242;2024-03-25T07:49:51;55.60;;;14.32;;
84297;SDS011;74466;51.188;3.242;2024-03-25T07:52:16;50.60;;;14.13;;
84297;SDS011;74466;51.188;3.242;2024-03-25T07:54:43;57.30;;;13.60;;
84297;SDS011;74466;51.188;3.242;2024-03-25T07:57:08;51.17;;;13.30;;
84297;SDS011;74466;51.188;3.242;2024-03-25T07:59:34;49.97;;;13.85;;
84297;SDS011;74466;51.188;3.242;2024-03-25T08:02:00;58.58;;;13.68;;
84297;SDS011;74466;51.188;3.242;2024-03-25T08:04:26;51.42;;;13.65;;
84297;SDS011;74466;51.188;3.242;2024-03-25T08:06:51;56.92;;;13.50;;
84297;SDS011;74466;51.188;3.242;2024-03-25T08:09:17;44.58;;;12.52;;
84297;SDS011;74466;51.188;3.242;2024-03-25T08:11:43;44.20;;;11.35;;
84297;SDS011;74466;51.188;3.242;2024-03-25T08:14:08;41.67;;;10.90;;
84297;SDS011;74466;51.188;3.242;2024-03-25T08:16:34;44.72;;;12.25;;
84297;SDS011;74466;51.188;3.242;2024-03-25T08:19:00;47.53;;;12.13;;
84297;SDS011;74466;51.188;3.242;2024-03-25T08:21:26;42.38;;;11.75;;
84297;SDS011;74466;51.188;3.242;2024-03-25T08:23:52;51.97;;;12.82;;
84297;SDS011;74466;51.188;3.242;2024-03-25T08:26:17;47.58;;;12.88;;
84297;SDS011;74466;51.188;3.242;2024-03-25T08:28:43;44.55;;;12.35;;
84297;SDS011;74466;51.188;3.242;2024-03-25T08:31:09;46.00;;;12.55;;
84297;SDS011;74466;51.188;3.242;2024-03-25T08:33:34;39.30;;;11.57;;
84297;SDS011;74466;51.188;3.242;2024-03-25T08:36:00;39.80;;;12.02;;
84297;SDS011;74466;51.188;3.242;2024-03-25T08:38:26;45.70;;;12.60;;
84297;SDS011;74466;51.188;3.242;2024-03-25T08:40:53;46.13;;;12.40;;
84297;SDS011;74466;51.188;3.242;2024-03-25T08:43:19;45.38;;;11.73;;
84297;SDS011;74466;51.188;3.242;2024-03-25T08:45:44;38.78;;;12.27;;
84297;SDS011;74466;51.188;3.242;2024-03-25T08:48:11;34.22;;;10.65;;
84297;SDS011;74466;51.188;3.242;2024-03-25T08:50:37;36.13;;;10.82;;
84297;SDS011;74466;51.188;3.242;2024-03-25T08:53:03;35.50;;;11.35;;
84297;SDS011;74466;51.188;3.242;2024-03-25T08:55:29;34.42;;;11.57;;
84297;SDS011;74466;51.188;3.242;2024-03-25T08:57:54;39.15;;;11.60;;
84297;SDS011;74466;51.188;3.242;2024-03-25T09:00:20;38.15;;;10.82;;
84297;SDS011;74466;51.188;3.242;2024-03-25T09:02:47;39.80;;;11.85;;
84297;SDS011;74466;51.188;3.242;2024-03-25T09:05:13;37.08;;;11.13;;
84297;SDS011;74466;51.188;3.242;2024-03-25T09:07:43;33.95;;;10.95;;
84297;SDS011;74466;51.188;3.242;2024-03-25T09:10:17;32.58;;;10.00;;
84297;SDS011;74466;51.188;3.242;2024-03-25T09:13:01;30.38;;;9.90;;
84297;SDS011;74466;51.188;3.242;2024-03-25T09:15:28;32.00;;;9.88;;
84297;SDS011;74466;51.188;3.242;2024-03-25T09:17:54;29.50;;;9.88;;
84297;SDS011;74466;51.188;3.242;2024-03-25T09:20:20;31.00;;;10.52;;
84297;SDS011;74466;51.188;3.242;2024-03-25T09:22:49;30.42;;;10.73;;
84297;SDS011;74466;51.188;3.242;2024-03-25T09:25:17;32.60;;;10.93;;
84297;SDS011;74466;51.188;3.242;2024-03-25T09:27:46;32.28;;;11.43;;
84297;SDS011;74466;51.188;3.242;2024-03-25T09:30:13;41.50;;;12.60;;
84297;SDS011;74466;51.188;3.242;2024-03-25T09:32:42;46.72;;;13.60;;
84297;SDS011;74466;51.188;3.242;2024-03-25T09:35:08;39.45;;;12.35;;
84297;SDS011;74466;51.188;3.242;2024-03-25T09:37:35;38.35;;;12.90;;
84297;SDS011;74466;51.188;3.242;2024-03-25T09:40:01;42.33;;;12.52;;
84297;SDS011;74466;51.188;3.242;2024-03-25T09:42:42;43.05;;;12.27;;
84297;SDS011;74466;51.188;3.242;2024-03-25T09:45:17;34.53;;;11.27;;
84297;SDS011;74466;51.188;3.242;2024-03-25T09:47:46;34.95;;;11.52;;
84297;SDS011;74466;51.188;3.242;2024-03-25T09:50:13;38.40;;;11.20;;
84297;SDS011;74466;51.188;3.242;2024-03-25T09:52:44;44.50;;;13.20;;
84297;SDS011;74466;51.188;3.242;2024-03-25T09:55:14;47.25;;;13.35;;
84297;SDS011;74466;51.188;3.242;2024-03-25T09:57:41;41.30;;;12.90;;
84297;SDS011;74466;51.188;3.242;2024-03-25T10:00:08;50.40;;;13.63;;
84297;SDS011;74466;51.188;3.242;2024-03-25T10:02:36;41.53;;;13.77;;
84297;SDS011;74466;51.188;3.242;2024-03-25T10:05:03;37.05;;;12.13;;
84297;SDS011;74466;51.188;3.242;2024-03-25T10:07:30;36.10;;;11.15;;
84297;SDS011;74466;51.188;3.242;2024-03-25T10:09:56;35.30;;;11.82;;
84297;SDS011;74466;51.188;3.242;2024-03-25T10:12:23;32.38;;;10.93;;
84297;SDS011;74466;51.188;3.242;2024-03-25T10:14:49;28.92;;;10.77;;
84297;SDS011;74466;51.188;3.242;2024-03-25T10:17:15;32.55;;;11.95;;
84297;SDS011;74466;51.188;3.242;2024-03-25T10:19:40;34.42;;;12.85;;
84297;SDS011;74466;51.188;3.242;2024-03-25T10:22:07;38.80;;;13.20;;
84297;SDS011;74466;51.188;3.242;2024-03-25T10:24:37;36.38;;;13.50;;
84297;SDS011;74466;51.188;3.242;2024-03-25T10:27:02;42.72;;;12.00;;
84297;SDS011;74466;51.188;3.242;2024-03-25T10:29:29;29.83;;;11.55;;
84297;SDS011;74466;51.188;3.242;2024-03-25T10:31:58;35.58;;;12.45;;
84297;SDS011;74466;51.188;3.242;2024-03-25T10:34:24;31.02;;;11.43;;
84297;SDS011;74466;51.188;3.242;2024-03-25T10:36:50;33.13;;;12.93;;
84297;SDS011;74466;51.188;3.242;2024-03-25T10:39:21;31.80;;;12.30;;
84297;SDS011;74466;51.188;3.242;2024-03-25T10:41:51;34.53;;;12.23;;
84297;SDS011;74466;51.188;3.242;2024-03-25T10:44:20;31.17;;;11.88;;
84297;SDS011;74466;51.188;3.242;2024-03-25T10:46:47;29.58;;;11.02;;
84297;SDS011;74466;51.188;3.242;2024-03-25T10:49:16;30.02;;;10.15;;
84297;SDS011;74466;51.188;3.242;2024-03-25T10:51:50;26.27;;;9.95;;
84297;SDS011;74466;51.188;3.242;2024-03-25T10:54:16;26.23;;;9.77;;
84297;SDS011;74466;51.188;3.242;2024-03-25T10:56:42;26.88;;;10.27;;
84297;SDS011;74466;51.188;3.242;2024-03-25T10:59:09;24.65;;;9.27;;
84297;SDS011;74466;51.188;3.242;2024-03-25T11:01:37;27.45;;;9.57;;
84297;SDS011;74466;51.188;3.242;2024-03-25T11:04:03;21.73;;;9.55;;
84297;SDS011;74466;51.188;3.242;2024-03-25T11:06:31;21.52;;;8.98;;
84297;SDS011;74466;51.188;3.242;2024-03-25T11:08:57;24.27;;;9.57;;
84297;SDS011;74466;51.188;3.242;2024-03-25T11:11:23;24.90;;;9.15;;
84297;SDS011;74466;51.188;3.242;2024-03-25T11:13:55;24.98;;;9.65;;
84297;SDS011;74466;51.188;3.242;2024-03-25T11:16:30;25.48;;;8.32;;
84297;SDS011;74466;51.188;3.242;2024-03-25T11:19:00;22.90;;;8.02;;
84297;SDS011;74466;51.188;3.242;2024-03-25T11:21:28;19.00;;;7.40;;
84297;SDS011;74466;51.188;3.242;2024-03-25T11:23:53;15.90;;;7.65;;
84297;SDS011;74466;51.188;3.242;2024-03-25T11:26:25;16.30;;;7.05;;
84297;SDS011;74466;51.188;3.242;2024-03-25T11:28:55;20.67;;;8.05;;
84297;SDS011;74466;51.188;3.242;2024-03-25T11:31:21;17.25;;;7.53;;
84297;SDS011;74466;51.188;3.242;2024-03-25T11:33:49;18.42;;;7.00;;
84297;SDS011;74466;51.188;3.242;2024-03-25T11:36:15;17.05;;;7.30;;
84297;SDS011;74466;51.188;3.242;2024-03-25T11:38:43;15.93;;;7.70;;
84297;SDS011;74466;51.188;3.242;2024-03-25T11:41:10;20.92;;;8.02;;
84297;SDS011;74466;51.188;3.242;2024-03-25T11:43:36;18.70;;;7.20;;
84297;SDS011;74466;51.188;3.242;2024-03-25T11:46:02;19.25;;;7.85;;
84297;SDS011;74466;51.188;3.242;2024-03-25T11:48:30;18.50;;;8.10;;
84297;SDS011;74466;51.188;3.242;2024-03-25T11:50:58;21.75;;;7.72;;
84297;SDS011;74466;51.188;3.242;2024-03-25T11:53:25;21.35;;;8.23;;
84297;SDS011;74466;51.188;3.242;2024-03-25T11:55:52;18.55;;;8.15;;
84297;SDS011;74466;51.188;3.242;2024-03-25T11:58:18;18.25;;;8.63;;
84297;SDS011;74466;51.188;3.242;2024-03-25T12:00:44;22.02;;;8.70;;
84297;SDS011;74466;51.188;3.242;2024-03-25T12:03:14;17.55;;;8.80;;
84297;SDS011;74466;51.188;3.242;2024-03-25T12:05:40;16.88;;;7.53;;
84297;SDS011;74466;51.188;3.242;2024-03-25T12:08:09;19.73;;;8.05;;
84297;SDS011;74466;51.188;3.242;2024-03-25T12:10:36;22.55;;;8.70;;
84297;SDS011;74466;51.188;3.242;2024-03-25T12:13:21;18.10;;;8.00;;
84297;SDS011;74466;51.188;3.242;2024-03-25T12:15:47;18.20;;;7.88;;
84297;SDS011;74466;51.188;3.242;2024-03-25T12:18:16;16.38;;;7.20;;
84297;SDS011;74466;51.188;3.242;2024-03-25T12:20:42;14.98;;;7.50;;
84297;SDS011;74466;51.188;3.242;2024-03-25T12:23:10;17.83;;;7.65;;
84297;SDS011;74466;51.188;3.242;2024-03-25T12:25:35;14.43;;;6.30;;
84297;SDS011;74466;51.188;3.242;2024-03-25T12:28:01;16.67;;;6.95;;
84297;SDS011;74466;51.188;3.242;2024-03-25T12:30:27;19.02;;;7.28;;
84297;SDS011;74466;51.188;3.242;2024-03-25T12:32:52;15.90;;;6.80;;
84297;SDS011;74466;51.188;3.242;2024-03-25T12:35:20;16.88;;;7.05;;
84297;SDS011;74466;51.188;3.242;2024-03-25T12:37:46;12.85;;;6.55;;
84297;SDS011;74466;51.188;3.242;2024-03-25T12:40:13;13.57;;;5.55;;
84297;SDS011;74466;51.188;3.242;2024-03-25T12:42:53;11.70;;;4.95;;
84297;SDS011;74466;51.188;3.242;2024-03-25T12:45:20;10.43;;;4.97;;
84297;SDS011;74466;51.188;3.242;2024-03-25T12:47:49;12.85;;;4.80;;
84297;SDS011;74466;51.188;3.242;2024-03-25T12:50:15;13.15;;;4.43;;
84297;SDS011;74466;51.188;3.242;2024-03-25T12:52:41;10.73;;;4.70;;
84297;SDS011;74466;51.188;3.242;2024-03-25T12:55:06;12.63;;;4.43;;
84297;SDS011;74466;51.188;3.242;2024-03-25T12:57:32;11.73;;;4.20;;
84297;SDS011;74466;51.188;3.242;2024-03-25T12:59:58;9.30;;;3.22;;
84297;SDS011;74466;51.188;3.242;2024-03-25T13:02:23;8.32;;;3.38;;
84297;SDS011;74466;51.188;3.242;2024-03-25T13:04:49;6.75;;;3.05;;
84297;SDS011;74466;51.188;3.242;2024-03-25T13:07:15;8.18;;;2.92;;
84297;SDS011;74466;51.188;3.242;2024-03-25T13:09:40;7.70;;;3.28;;
84297;SDS011;74466;51.188;3.242;2024-03-25T13:12:06;8.32;;;2.83;;
84297;SDS011;74466;51.188;3.242;2024-03-25T13:14:32;7.28;;;2.75;;
84297;SDS011;74466;51.188;3.242;2024-03-25T13:16:59;9.15;;;3.03;;
84297;SDS011;74466;51.188;3.242;2024-03-25T13:19:25;7.28;;;2.90;;
84297;SDS011;74466;51.188;3.242;2024-03-25T13:21:53;7.00;;;2.80;;
84297;SDS011;74466;51.188;3.242;2024-03-25T13:24:20;9.30;;;2.58;;
84297;SDS011;74466;51.188;3.242;2024-03-25T13:26:46;7.15;;;2.38;;
84297;SDS011;74466;51.188;3.242;2024-03-25T13:29:11;7.50;;;2.72;;
84297;SDS011;74466;51.188;3.242;2024-03-25T13:31:37;9.30;;;3.17;;
84297;SDS011;74466;51.188;3.242;2024-03-25T13:34:03;9.18;;;2.38;;
84297;SDS011;74466;51.188;3.242;2024-03-25T13:36:28;8.25;;;2.72;;
84297;SDS011;74466;51.188;3.242;2024-03-25T13:38:54;7.18;;;2.47;;
84297;SDS011;74466;51.188;3.242;2024-03-25T13:41:23;7.03;;;2.40;;
84297;SDS011;74466;51.188;3.242;2024-03-25T13:43:49;6.35;;;2.53;;
84297;SDS011;74466;51.188;3.242;2024-03-25T13:46:15;7.53;;;2.25;;
84297;SDS011;74466;51.188;3.242;2024-03-25T13:48:42;7.13;;;2.55;;
84297;SDS011;74466;51.188;3.242;2024-03-25T13:51:07;9.55;;;2.80;;
84297;SDS011;74466;51.188;3.242;2024-03-25T13:53:33;6.80;;;2.85;;
84297;SDS011;74466;51.188;3.242;2024-03-25T13:55:59;7.88;;;2.50;;
84297;SDS011;74466;51.188;3.242;2024-03-25T13:58:27;8.85;;;2.58;;
84297;SDS011;74466;51.188;3.242;2024-03-25T14:00:53;7.50;;;2.83;;
84297;SDS011;74466;51.188;3.242;2024-03-25T14:03:20;7.68;;;2.47;;
84297;SDS011;74466;51.188;3.242;2024-03-25T14:05:46;7.78;;;2.53;;
84297;SDS011;74466;51.188;3.242;2024-03-25T14:08:12;9.60;;;2.53;;
84297;SDS011;74466;51.188;3.242;2024-03-25T14:10:38;8.13;;;2.80;;
84297;SDS011;74466;51.188;3.242;2024-03-25T14:13:04;7.18;;;2.65;;
84297;SDS011;74466;51.188;3.242;2024-03-25T14:15:30;7.63;;;2.50;;
84297;SDS011;74466;51.188;3.242;2024-03-25T14:17:56;6.32;;;2.30;;
84297;SDS011;74466;51.188;3.242;2024-03-25T14:20:22;7.00;;;2.60;;
84297;SDS011;74466;51.188;3.242;2024-03-25T14:22:48;9.93;;;3.08;;
84297;SDS011;74466;51.188;3.242;2024-03-25T14:25:13;8.85;;;3.17;;
84297;SDS011;74466;51.188;3.242;2024-03-25T14:27:40;8.55;;;3.00;;
84297;SDS011;74466;51.188;3.242;2024-03-25T14:30:06;7.10;;;2.80;;
84297;SDS011;74466;51.188;3.242;2024-03-25T14:32:35;9.52;;;2.72;;